sensor_id;sensor_type;location;lat;lon;timestamp;P1;durP1;ratioP1;P2;durP2;ratioP2
12112;SDS011;6120;52.250;8.478;2023-06-26T00:01:30;2.83;;;2.63;;
12112;SDS011;6120;52.250;8.478;2023-06-26T00:03:58;2.90;;;2.70;;
12112;SDS011;6120;52.250;8.478;2023-06-26T00:06:25;2.53;;;2.33;;
12112;SDS011;6120;52.250;8.478;2023-06-26T00:08:53;3.22;;;2.92;;
12112;SDS011;6120;52.250;8.478;2023-06-26T00:11:20;2.87;;;2.67;;
12112;SDS011;6120;52.250;8.478;2023-06-26T00:13:47;2.60;;;2.40;;
12112;SDS011;6120;52.250;8.478;2023-06-26T00:16:14;2.67;;;2.47;;
12112;SDS011;6120;52.250;8.478;2023-06-26T00:18:40;3.13;;;2.92;;
12112;SDS011;6120;52.250;8.478;2023-06-26T00:21:07;2.83;;;2.63;;
12112;SDS011;6120;52.250;8.478;2023-06-26T00:23:34;2.83;;;2.63;;
12112;SDS011;6120;52.250;8.478;2023-06-26T00:26:05;2.70;;;2.50;;
12112;SDS011;6120;52.250;8.478;2023-06-26T00:28:32;2.88;;;2.67;;
12112;SDS011;6120;52.250;8.478;2023-06-26T00:30:58;2.95;;;2.65;;
12112;SDS011;6120;52.250;8.478;2023-06-26T00:33:25;3.00;;;2.80;;
12112;SDS011;6120;52.250;8.478;2023-06-26T00:35:52;3.03;;;2.83;;
12112;SDS011;6120;52.250;8.478;2023-06-26T00:38:18;3.00;;;2.80;;
12112;SDS011;6120;52.250;8.478;2023-06-26T00:40:45;3.22;;;2.72;;
12112;SDS011;6120;52.250;8.478;2023-06-26T00:43:12;3.08;;;2.88;;
12112;SDS011;6120;52.250;8.478;2023-06-26T00:45:38;2.75;;;2.55;;
12112;SDS011;6120;52.250;8.478;2023-06-26T00:48:09;3.10;;;2.88;;
12112;SDS011;6120;52.250;8.478;2023-06-26T00:50:40;3.17;;;2.88;;
12112;SDS011;6120;52.250;8.478;2023-06-26T00:53:09;3.05;;;2.72;;
12112;SDS011;6120;52.250;8.478;2023-06-26T00:55:36;3.05;;;2.85;;
12112;SDS011;6120;52.250;8.478;2023-06-26T00:58:03;3.15;;;2.85;;
12112;SDS011;6120;52.250;8.478;2023-06-26T01:00:29;2.50;;;2.30;;
12112;SDS011;6120;52.250;8.478;2023-06-26T01:02:56;2.85;;;2.65;;
12112;SDS011;6120;52.250;8.478;2023-06-26T01:05:27;3.17;;;2.97;;
12112;SDS011;6120;52.250;8.478;2023-06-26T01:10:21;2.63;;;2.42;;
12112;SDS011;6120;52.250;8.478;2023-06-26T01:12:48;2.90;;;2.70;;
12112;SDS011;6120;52.250;8.478;2023-06-26T01:15:15;3.20;;;2.90;;
12112;SDS011;6120;52.250;8.478;2023-06-26T01:17:42;3.25;;;2.95;;
12112;SDS011;6120;52.250;8.478;2023-06-26T01:20:11;3.03;;;2.83;;
12112;SDS011;6120;52.250;8.478;2023-06-26T01:28:43;2.78;;;2.58;;
12112;SDS011;6120;52.250;8.478;2023-06-26T01:31:11;2.80;;;2.60;;
12112;SDS011;6120;52.250;8.478;2023-06-26T01:33:38;3.90;;;2.75;;
12112;SDS011;6120;52.250;8.478;2023-06-26T01:36:06;3.00;;;2.80;;
12112;SDS011;6120;52.250;8.478;2023-06-26T01:38:33;2.95;;;2.75;;
12112;SDS011;6120;52.250;8.478;2023-06-26T01:41:03;3.20;;;2.90;;
12112;SDS011;6120;52.250;8.478;2023-06-26T01:49:07;3.05;;;2.85;;
12112;SDS011;6120;52.250;8.478;2023-06-26T01:51:42;3.00;;;2.80;;
12112;SDS011;6120;52.250;8.478;2023-06-26T01:54:17;3.05;;;2.85;;
12112;SDS011;6120;52.250;8.478;2023-06-26T01:56:45;3.22;;;2.92;;
12112;SDS011;6120;52.250;8.478;2023-06-26T01:59:15;2.90;;;2.70;;
12112;SDS011;6120;52.250;8.478;2023-06-26T02:01:43;3.05;;;2.75;;
12112;SDS011;6120;52.250;8.478;2023-06-26T02:04:10;2.75;;;2.55;;
12112;SDS011;6120;52.250;8.478;2023-06-26T02:06:37;2.65;;;2.45;;
12112;SDS011;6120;52.250;8.478;2023-06-26T02:09:03;2.85;;;2.65;;
12112;SDS011;6120;52.250;8.478;2023-06-26T02:11:30;3.00;;;2.80;;
12112;SDS011;6120;52.250;8.478;2023-06-26T02:13:57;3.05;;;2.75;;
12112;SDS011;6120;52.250;8.478;2023-06-26T02:16:23;2.85;;;2.65;;
12112;SDS011;6120;52.250;8.478;2023-06-26T02:18:50;2.83;;;2.63;;
12112;SDS011;6120;52.250;8.478;2023-06-26T02:21:17;2.90;;;2.70;;
12112;SDS011;6120;52.250;8.478;2023-06-26T02:23:44;3.38;;;3.08;;
12112;SDS011;6120;52.250;8.478;2023-06-26T02:26:10;2.83;;;2.63;;
12112;SDS011;6120;52.250;8.478;2023-06-26T02:28:37;2.90;;;2.70;;
12112;SDS011;6120;52.250;8.478;2023-06-26T02:31:04;2.95;;;2.75;;
12112;SDS011;6120;52.250;8.478;2023-06-26T02:33:31;3.30;;;3.00;;
12112;SDS011;6120;52.250;8.478;2023-06-26T02:35:58;3.63;;;2.92;;
12112;SDS011;6120;52.250;8.478;2023-06-26T02:38:25;3.03;;;2.72;;
12112;SDS011;6120;52.250;8.478;2023-06-26T02:40:51;3.10;;;2.67;;
12112;SDS011;6120;52.250;8.478;2023-06-26T02:43:18;2.92;;;2.72;;
12112;SDS011;6120;52.250;8.478;2023-06-26T02:45:44;3.05;;;2.75;;
12112;SDS011;6120;52.250;8.478;2023-06-26T02:48:11;2.63;;;2.42;;
12112;SDS011;6120;52.250;8.478;2023-06-26T02:50:38;3.28;;;2.97;;
12112;SDS011;6120;52.250;8.478;2023-06-26T02:53:05;3.22;;;2.92;;
12112;SDS011;6120;52.250;8.478;2023-06-26T02:55:31;3.00;;;2.80;;
12112;SDS011;6120;52.250;8.478;2023-06-26T02:57:59;3.15;;;2.90;;
12112;SDS011;6120;52.250;8.478;2023-06-26T03:00:26;3.17;;;2.78;;
12112;SDS011;6120;52.250;8.478;2023-06-26T03:02:52;3.00;;;2.80;;
12112;SDS011;6120;52.250;8.478;2023-06-26T03:05:19;2.97;;;2.78;;
12112;SDS011;6120;52.250;8.478;2023-06-26T03:07:46;2.83;;;2.63;;
12112;SDS011;6120;52.250;8.478;2023-06-26T03:10:12;2.88;;;2.67;;
12112;SDS011;6120;52.250;8.478;2023-06-26T03:12:39;3.28;;;2.97;;
12112;SDS011;6120;52.250;8.478;2023-06-26T03:15:06;3.50;;;3.20;;
12112;SDS011;6120;52.250;8.478;2023-06-26T03:17:33;3.10;;;2.80;;
12112;SDS011;6120;52.250;8.478;2023-06-26T03:20:00;3.17;;;2.88;;
12112;SDS011;6120;52.250;8.478;2023-06-26T03:22:27;3.20;;;2.90;;
12112;SDS011;6120;52.250;8.478;2023-06-26T03:24:53;2.80;;;2.60;;
12112;SDS011;6120;52.250;8.478;2023-06-26T03:27:21;3.22;;;2.92;;
12112;SDS011;6120;52.250;8.478;2023-06-26T03:29:48;2.85;;;2.65;;
12112;SDS011;6120;52.250;8.478;2023-06-26T03:32:14;3.78;;;2.65;;
12112;SDS011;6120;52.250;8.478;2023-06-26T03:34:41;2.90;;;2.60;;
12112;SDS011;6120;52.250;8.478;2023-06-26T03:37:08;2.58;;;2.38;;
12112;SDS011;6120;52.250;8.478;2023-06-26T03:39:34;2.80;;;2.60;;
12112;SDS011;6120;52.250;8.478;2023-06-26T03:42:01;2.67;;;2.35;;
12112;SDS011;6120;52.250;8.478;2023-06-26T03:44:27;3.08;;;2.83;;
12112;SDS011;6120;52.250;8.478;2023-06-26T03:46:54;2.80;;;2.60;;
12112;SDS011;6120;52.250;8.478;2023-06-26T03:49:21;3.42;;;3.13;;
12112;SDS011;6120;52.250;8.478;2023-06-26T03:51:48;2.92;;;2.72;;
12112;SDS011;6120;52.250;8.478;2023-06-26T03:54:14;3.25;;;2.95;;
12112;SDS011;6120;52.250;8.478;2023-06-26T03:56:41;2.75;;;2.55;;
12112;SDS011;6120;52.250;8.478;2023-06-26T03:59:08;2.90;;;2.70;;
12112;SDS011;6120;52.250;8.478;2023-06-26T04:01:35;2.97;;;2.72;;
12112;SDS011;6120;52.250;8.478;2023-06-26T04:04:02;3.33;;;2.97;;
12112;SDS011;6120;52.250;8.478;2023-06-26T04:06:29;2.85;;;2.65;;
12112;SDS011;6120;52.250;8.478;2023-06-26T04:08:57;2.83;;;2.63;;
12112;SDS011;6120;52.250;8.478;2023-06-26T04:11:24;2.95;;;2.75;;
12112;SDS011;6120;52.250;8.478;2023-06-26T04:13:51;2.80;;;2.60;;
12112;SDS011;6120;52.250;8.478;2023-06-26T04:16:19;2.88;;;2.67;;
12112;SDS011;6120;52.250;8.478;2023-06-26T04:18:47;3.38;;;3.08;;
12112;SDS011;6120;52.250;8.478;2023-06-26T04:21:13;2.80;;;2.60;;
12112;SDS011;6120;52.250;8.478;2023-06-26T04:23:40;2.97;;;2.78;;
12112;SDS011;6120;52.250;8.478;2023-06-26T04:26:07;3.17;;;2.88;;
12112;SDS011;6120;52.250;8.478;2023-06-26T04:28:35;4.80;;;3.47;;
12112;SDS011;6120;52.250;8.478;2023-06-26T04:31:02;2.85;;;2.65;;
12112;SDS011;6120;52.250;8.478;2023-06-26T04:33:32;3.10;;;2.90;;
12112;SDS011;6120;52.250;8.478;2023-06-26T04:35:58;3.20;;;2.95;;
12112;SDS011;6120;52.250;8.478;2023-06-26T04:38:26;3.03;;;2.75;;
12112;SDS011;6120;52.250;8.478;2023-06-26T04:40:52;2.80;;;2.60;;
12112;SDS011;6120;52.250;8.478;2023-06-26T04:43:19;3.17;;;2.88;;
12112;SDS011;6120;52.250;8.478;2023-06-26T04:45:45;2.60;;;2.40;;
12112;SDS011;6120;52.250;8.478;2023-06-26T04:48:12;2.78;;;2.58;;
12112;SDS011;6120;52.250;8.478;2023-06-26T04:50:39;2.90;;;2.70;;
12112;SDS011;6120;52.250;8.478;2023-06-26T04:53:06;3.22;;;2.92;;
12112;SDS011;6120;52.250;8.478;2023-06-26T04:55:33;2.97;;;2.78;;
12112;SDS011;6120;52.250;8.478;2023-06-26T04:58:01;3.03;;;2.83;;
12112;SDS011;6120;52.250;8.478;2023-06-26T05:00:28;2.78;;;2.58;;
12112;SDS011;6120;52.250;8.478;2023-06-26T05:02:55;3.00;;;2.80;;
12112;SDS011;6120;52.250;8.478;2023-06-26T05:05:27;2.97;;;2.58;;
12112;SDS011;6120;52.250;8.478;2023-06-26T05:07:55;3.13;;;2.90;;
12112;SDS011;6120;52.250;8.478;2023-06-26T05:10:22;3.22;;;2.92;;
12112;SDS011;6120;52.250;8.478;2023-06-26T05:12:49;2.83;;;2.63;;
12112;SDS011;6120;52.250;8.478;2023-06-26T05:15:15;3.03;;;2.83;;
12112;SDS011;6120;52.250;8.478;2023-06-26T05:17:42;2.90;;;2.60;;
12112;SDS011;6120;52.250;8.478;2023-06-26T05:20:09;3.00;;;2.75;;
12112;SDS011;6120;52.250;8.478;2023-06-26T05:22:36;2.80;;;2.60;;
12112;SDS011;6120;52.250;8.478;2023-06-26T05:25:05;2.90;;;2.60;;
12112;SDS011;6120;52.250;8.478;2023-06-26T05:27:34;2.83;;;2.63;;
12112;SDS011;6120;52.250;8.478;2023-06-26T05:30:01;2.80;;;2.60;;
12112;SDS011;6120;52.250;8.478;2023-06-26T05:32:29;3.08;;;2.88;;
12112;SDS011;6120;52.250;8.478;2023-06-26T05:34:57;4.30;;;3.13;;
12112;SDS011;6120;52.250;8.478;2023-06-26T05:37:25;3.38;;;3.08;;
12112;SDS011;6120;52.250;8.478;2023-06-26T05:39:53;3.22;;;2.92;;
12112;SDS011;6120;52.250;8.478;2023-06-26T05:42:19;3.45;;;3.03;;
12112;SDS011;6120;52.250;8.478;2023-06-26T05:44:46;3.10;;;2.90;;
12112;SDS011;6120;52.250;8.478;2023-06-26T05:47:13;2.88;;;2.67;;
12112;SDS011;6120;52.250;8.478;2023-06-26T05:49:40;3.47;;;3.17;;
12112;SDS011;6120;52.250;8.478;2023-06-26T05:52:06;3.25;;;2.97;;
12112;SDS011;6120;52.250;8.478;2023-06-26T05:54:33;3.38;;;3.08;;
12112;SDS011;6120;52.250;8.478;2023-06-26T05:57:00;2.83;;;2.60;;
12112;SDS011;6120;52.250;8.478;2023-06-26T05:59:27;2.90;;;2.67;;
12112;SDS011;6120;52.250;8.478;2023-06-26T06:01:55;3.03;;;2.72;;
12112;SDS011;6120;52.250;8.478;2023-06-26T06:04:22;3.17;;;2.95;;
12112;SDS011;6120;52.250;8.478;2023-06-26T06:06:48;3.05;;;2.85;;
12112;SDS011;6120;52.250;8.478;2023-06-26T06:09:15;3.38;;;3.08;;
12112;SDS011;6120;52.250;8.478;2023-06-26T06:11:42;3.22;;;2.70;;
12112;SDS011;6120;52.250;8.478;2023-06-26T06:14:08;3.33;;;3.03;;
12112;SDS011;6120;52.250;8.478;2023-06-26T06:16:35;3.17;;;2.88;;
12112;SDS011;6120;52.250;8.478;2023-06-26T06:19:02;3.25;;;2.95;;
12112;SDS011;6120;52.250;8.478;2023-06-26T06:21:29;3.00;;;2.80;;
12112;SDS011;6120;52.250;8.478;2023-06-26T06:23:56;8.02;;;3.00;;
12112;SDS011;6120;52.250;8.478;2023-06-26T06:26:22;3.00;;;2.80;;
12112;SDS011;6120;52.250;8.478;2023-06-26T06:28:49;4.13;;;3.10;;
12112;SDS011;6120;52.250;8.478;2023-06-26T06:31:16;3.40;;;3.10;;
12112;SDS011;6120;52.250;8.478;2023-06-26T06:33:43;3.40;;;3.10;;
12112;SDS011;6120;52.250;8.478;2023-06-26T06:36:09;3.38;;;3.08;;
12112;SDS011;6120;52.250;8.478;2023-06-26T06:38:36;3.30;;;3.00;;
12112;SDS011;6120;52.250;8.478;2023-06-26T06:41:03;5.32;;;3.22;;
12112;SDS011;6120;52.250;8.478;2023-06-26T06:43:29;3.40;;;3.10;;
12112;SDS011;6120;52.250;8.478;2023-06-26T06:45:56;4.00;;;3.60;;
12112;SDS011;6120;52.250;8.478;2023-06-26T06:48:22;3.25;;;2.95;;
12112;SDS011;6120;52.250;8.478;2023-06-26T06:50:49;3.60;;;3.30;;
12112;SDS011;6120;52.250;8.478;2023-06-26T06:53:17;3.95;;;3.55;;
12112;SDS011;6120;52.250;8.478;2023-06-26T06:55:46;6.60;;;3.20;;
12112;SDS011;6120;52.250;8.478;2023-06-26T06:58:13;5.45;;;4.00;;
12112;SDS011;6120;52.250;8.478;2023-06-26T07:00:40;4.18;;;3.72;;
12112;SDS011;6120;52.250;8.478;2023-06-26T07:03:07;3.78;;;3.47;;
12112;SDS011;6120;52.250;8.478;2023-06-26T07:05:33;4.85;;;3.72;;
12112;SDS011;6120;52.250;8.478;2023-06-26T07:08:00;4.13;;;3.72;;
12112;SDS011;6120;52.250;8.478;2023-06-26T07:10:27;4.22;;;3.85;;
12112;SDS011;6120;52.250;8.478;2023-06-26T07:12:54;4.50;;;4.10;;
12112;SDS011;6120;52.250;8.478;2023-06-26T07:15:21;4.15;;;3.78;;
12112;SDS011;6120;52.250;8.478;2023-06-26T07:17:47;4.03;;;3.63;;
12112;SDS011;6120;52.250;8.478;2023-06-26T07:20:14;4.10;;;3.78;;
12112;SDS011;6120;52.250;8.478;2023-06-26T07:22:44;4.07;;;3.67;;
12112;SDS011;6120;52.250;8.478;2023-06-26T07:25:11;4.80;;;3.80;;
12112;SDS011;6120;52.250;8.478;2023-06-26T07:27:38;4.35;;;3.95;;
12112;SDS011;6120;52.250;8.478;2023-06-26T07:30:05;4.20;;;3.83;;
12112;SDS011;6120;52.250;8.478;2023-06-26T07:32:35;3.88;;;3.58;;
12112;SDS011;6120;52.250;8.478;2023-06-26T07:35:02;3.72;;;3.42;;
12112;SDS011;6120;52.250;8.478;2023-06-26T07:37:29;4.32;;;3.92;;
12112;SDS011;6120;52.250;8.478;2023-06-26T07:39:55;3.85;;;3.45;;
12112;SDS011;6120;52.250;8.478;2023-06-26T07:42:22;4.07;;;3.67;;
12112;SDS011;6120;52.250;8.478;2023-06-26T07:44:49;3.92;;;3.53;;
12112;SDS011;6120;52.250;8.478;2023-06-26T07:47:16;3.80;;;3.50;;
12112;SDS011;6120;52.250;8.478;2023-06-26T07:49:42;4.75;;;3.80;;
12112;SDS011;6120;52.250;8.478;2023-06-26T07:52:09;5.07;;;3.72;;
12112;SDS011;6120;52.250;8.478;2023-06-26T07:54:41;5.75;;;3.90;;
12112;SDS011;6120;52.250;8.478;2023-06-26T07:57:08;4.10;;;3.70;;
12112;SDS011;6120;52.250;8.478;2023-06-26T07:59:35;3.95;;;3.40;;
12112;SDS011;6120;52.250;8.478;2023-06-26T08:02:02;4.15;;;3.75;;
12112;SDS011;6120;52.250;8.478;2023-06-26T08:04:29;5.10;;;3.80;;
12112;SDS011;6120;52.250;8.478;2023-06-26T08:07:00;4.20;;;3.80;;
12112;SDS011;6120;52.250;8.478;2023-06-26T08:09:28;4.10;;;3.70;;
12112;SDS011;6120;52.250;8.478;2023-06-26T08:11:56;4.38;;;3.97;;
12112;SDS011;6120;52.250;8.478;2023-06-26T08:14:23;3.78;;;3.40;;
12112;SDS011;6120;52.250;8.478;2023-06-26T08:16:50;3.83;;;3.53;;
12112;SDS011;6120;52.250;8.478;2023-06-26T08:19:16;4.38;;;3.67;;
12112;SDS011;6120;52.250;8.478;2023-06-26T08:21:44;4.18;;;3.75;;
12112;SDS011;6120;52.250;8.478;2023-06-26T08:24:11;5.05;;;3.75;;
12112;SDS011;6120;52.250;8.478;2023-06-26T08:26:45;4.00;;;3.60;;
12112;SDS011;6120;52.250;8.478;2023-06-26T08:29:13;3.75;;;3.15;;
12112;SDS011;6120;52.250;8.478;2023-06-26T08:31:40;5.38;;;3.70;;
12112;SDS011;6120;52.250;8.478;2023-06-26T08:34:08;3.38;;;3.00;;
12112;SDS011;6120;52.250;8.478;2023-06-26T08:36:34;4.40;;;3.70;;
12112;SDS011;6120;52.250;8.478;2023-06-26T08:39:01;3.95;;;3.10;;
12112;SDS011;6120;52.250;8.478;2023-06-26T08:41:29;4.15;;;3.75;;
12112;SDS011;6120;52.250;8.478;2023-06-26T08:43:56;3.92;;;3.50;;
12112;SDS011;6120;52.250;8.478;2023-06-26T08:46:23;4.10;;;3.58;;
12112;SDS011;6120;52.250;8.478;2023-06-26T08:49:00;4.20;;;3.80;;
12112;SDS011;6120;52.250;8.478;2023-06-26T08:51:28;4.72;;;3.13;;
12112;SDS011;6120;52.250;8.478;2023-06-26T08:53:57;3.75;;;3.38;;
12112;SDS011;6120;52.250;8.478;2023-06-26T08:58:55;3.17;;;2.88;;
12112;SDS011;6120;52.250;8.478;2023-06-26T09:01:22;3.38;;;3.08;;
12112;SDS011;6120;52.250;8.478;2023-06-26T09:03:50;3.65;;;2.90;;
12112;SDS011;6120;52.250;8.478;2023-06-26T09:06:18;3.55;;;2.90;;
12112;SDS011;6120;52.250;8.478;2023-06-26T09:08:45;4.25;;;3.08;;
12112;SDS011;6120;52.250;8.478;2023-06-26T09:11:12;4.13;;;3.10;;
12112;SDS011;6120;52.250;8.478;2023-06-26T09:13:39;3.08;;;2.78;;
12112;SDS011;6120;52.250;8.478;2023-06-26T09:16:06;3.10;;;2.80;;
12112;SDS011;6120;52.250;8.478;2023-06-26T09:21:06;3.13;;;2.70;;
12112;SDS011;6120;52.250;8.478;2023-06-26T09:23:34;3.05;;;2.75;;
12112;SDS011;6120;52.250;8.478;2023-06-26T09:26:10;3.15;;;2.85;;
12112;SDS011;6120;52.250;8.478;2023-06-26T09:28:37;2.90;;;2.70;;
12112;SDS011;6120;52.250;8.478;2023-06-26T09:31:07;3.30;;;3.00;;
12112;SDS011;6120;52.250;8.478;2023-06-26T09:33:35;2.60;;;2.40;;
12112;SDS011;6120;52.250;8.478;2023-06-26T09:36:06;3.75;;;3.15;;
12112;SDS011;6120;52.250;8.478;2023-06-26T09:38:34;3.75;;;2.90;;
12112;SDS011;6120;52.250;8.478;2023-06-26T09:41:02;3.42;;;2.58;;
12112;SDS011;6120;52.250;8.478;2023-06-26T09:43:29;3.70;;;2.97;;
12112;SDS011;6120;52.250;8.478;2023-06-26T09:45:58;2.83;;;2.63;;
12112;SDS011;6120;52.250;8.478;2023-06-26T09:48:25;2.75;;;2.45;;
12112;SDS011;6120;52.250;8.478;2023-06-26T09:50:53;4.80;;;2.72;;
12112;SDS011;6120;52.250;8.478;2023-06-26T09:53:26;2.65;;;2.45;;
12112;SDS011;6120;52.250;8.478;2023-06-26T09:55:53;3.97;;;2.83;;
12112;SDS011;6120;52.250;8.478;2023-06-26T09:58:19;3.20;;;2.88;;
12112;SDS011;6120;52.250;8.478;2023-06-26T10:00:46;5.18;;;2.75;;
12112;SDS011;6120;52.250;8.478;2023-06-26T10:03:13;2.50;;;2.30;;
12112;SDS011;6120;52.250;8.478;2023-06-26T10:05:40;2.75;;;2.40;;
12112;SDS011;6120;52.250;8.478;2023-06-26T10:08:07;2.80;;;2.53;;
12112;SDS011;6120;52.250;8.478;2023-06-26T10:10:35;2.60;;;2.40;;
12112;SDS011;6120;52.250;8.478;2023-06-26T10:13:06;3.35;;;2.70;;
12112;SDS011;6120;52.250;8.478;2023-06-26T10:15:44;2.80;;;2.55;;
12112;SDS011;6120;52.250;8.478;2023-06-26T10:18:12;3.17;;;2.58;;
12112;SDS011;6120;52.250;8.478;2023-06-26T10:20:39;2.55;;;2.15;;
12112;SDS011;6120;52.250;8.478;2023-06-26T10:23:07;2.97;;;2.42;;
12112;SDS011;6120;52.250;8.478;2023-06-26T10:25:35;2.75;;;2.42;;
12112;SDS011;6120;52.250;8.478;2023-06-26T10:28:04;3.10;;;2.35;;
12112;SDS011;6120;52.250;8.478;2023-06-26T10:30:32;3.45;;;2.28;;
12112;SDS011;6120;52.250;8.478;2023-06-26T10:33:00;2.75;;;2.20;;
12112;SDS011;6120;52.250;8.478;2023-06-26T10:35:29;2.92;;;2.25;;
12112;SDS011;6120;52.250;8.478;2023-06-26T10:38:00;2.70;;;2.45;;
12112;SDS011;6120;52.250;8.478;2023-06-26T10:40:39;3.15;;;2.30;;
12112;SDS011;6120;52.250;8.478;2023-06-26T10:43:11;2.38;;;2.17;;
12112;SDS011;6120;52.250;8.478;2023-06-26T10:45:46;2.35;;;1.98;;
12112;SDS011;6120;52.250;8.478;2023-06-26T10:48:20;2.20;;;2.00;;
12112;SDS011;6120;52.250;8.478;2023-06-26T10:50:49;2.30;;;2.10;;
12112;SDS011;6120;52.250;8.478;2023-06-26T10:55:55;2.13;;;1.92;;
12112;SDS011;6120;52.250;8.478;2023-06-26T10:58:29;2.20;;;1.90;;
12112;SDS011;6120;52.250;8.478;2023-06-26T11:03:41;2.30;;;2.08;;
12112;SDS011;6120;52.250;8.478;2023-06-26T11:06:15;2.42;;;2.17;;
12112;SDS011;6120;52.250;8.478;2023-06-26T11:09:29;2.10;;;1.90;;
12112;SDS011;6120;52.250;8.478;2023-06-26T11:14:35;2.10;;;1.90;;
12112;SDS011;6120;52.250;8.478;2023-06-26T11:17:02;3.55;;;2.22;;
12112;SDS011;6120;52.250;8.478;2023-06-26T11:19:29;1.95;;;1.63;;
12112;SDS011;6120;52.250;8.478;2023-06-26T11:21:59;1.95;;;1.75;;
12112;SDS011;6120;52.250;8.478;2023-06-26T11:24:28;1.85;;;1.70;;
12112;SDS011;6120;52.250;8.478;2023-06-26T11:26:56;3.42;;;2.20;;
12112;SDS011;6120;52.250;8.478;2023-06-26T11:29:26;1.85;;;1.75;;
12112;SDS011;6120;52.250;8.478;2023-06-26T11:31:58;1.83;;;1.73;;
12112;SDS011;6120;52.250;8.478;2023-06-26T11:34:30;1.70;;;1.60;;
12112;SDS011;6120;52.250;8.478;2023-06-26T11:36:57;1.90;;;1.70;;
12112;SDS011;6120;52.250;8.478;2023-06-26T11:39:24;1.67;;;1.58;;
12112;SDS011;6120;52.250;8.478;2023-06-26T11:41:51;2.10;;;1.90;;
12112;SDS011;6120;52.250;8.478;2023-06-26T11:44:18;2.05;;;1.85;;
12112;SDS011;6120;52.250;8.478;2023-06-26T11:46:46;2.00;;;1.80;;
12112;SDS011;6120;52.250;8.478;2023-06-26T11:51:41;1.80;;;1.70;;
12112;SDS011;6120;52.250;8.478;2023-06-26T11:54:09;1.83;;;1.60;;
12112;SDS011;6120;52.250;8.478;2023-06-26T11:56:35;2.33;;;1.90;;
12112;SDS011;6120;52.250;8.478;2023-06-26T11:59:03;1.92;;;1.75;;
12112;SDS011;6120;52.250;8.478;2023-06-26T12:01:33;1.95;;;1.75;;
12112;SDS011;6120;52.250;8.478;2023-06-26T12:04:19;2.00;;;1.50;;
12112;SDS011;6120;52.250;8.478;2023-06-26T12:06:47;2.45;;;1.77;;
12112;SDS011;6120;52.250;8.478;2023-06-26T12:09:19;2.00;;;1.77;;
12112;SDS011;6120;52.250;8.478;2023-06-26T12:11:46;1.98;;;1.77;;
12112;SDS011;6120;52.250;8.478;2023-06-26T12:14:15;2.15;;;1.90;;
12112;SDS011;6120;52.250;8.478;2023-06-26T12:16:42;2.20;;;2.00;;
12112;SDS011;6120;52.250;8.478;2023-06-26T12:19:09;2.40;;;1.92;;
12112;SDS011;6120;52.250;8.478;2023-06-26T12:24:03;1.80;;;1.70;;
12112;SDS011;6120;52.250;8.478;2023-06-26T12:26:31;2.28;;;2.00;;
12112;SDS011;6120;52.250;8.478;2023-06-26T12:29:07;1.85;;;1.70;;
12112;SDS011;6120;52.250;8.478;2023-06-26T12:31:34;1.85;;;1.75;;
12112;SDS011;6120;52.250;8.478;2023-06-26T12:34:08;3.92;;;2.20;;
12112;SDS011;6120;52.250;8.478;2023-06-26T12:36:45;1.90;;;1.70;;
12112;SDS011;6120;52.250;8.478;2023-06-26T12:39:16;2.00;;;1.80;;
12112;SDS011;6120;52.250;8.478;2023-06-26T12:44:17;1.98;;;1.77;;
12112;SDS011;6120;52.250;8.478;2023-06-26T12:46:47;2.00;;;1.80;;
12112;SDS011;6120;52.250;8.478;2023-06-26T12:49:16;1.67;;;1.58;;
12112;SDS011;6120;52.250;8.478;2023-06-26T12:51:57;2.33;;;2.00;;
12112;SDS011;6120;52.250;8.478;2023-06-26T12:54:24;2.00;;;1.90;;
12112;SDS011;6120;52.250;8.478;2023-06-26T12:56:51;2.10;;;1.80;;
12112;SDS011;6120;52.250;8.478;2023-06-26T12:59:18;2.28;;;1.92;;
12112;SDS011;6120;52.250;8.478;2023-06-26T13:01:45;2.25;;;1.83;;
12112;SDS011;6120;52.250;8.478;2023-06-26T13:04:13;2.00;;;1.80;;
12112;SDS011;6120;52.250;8.478;2023-06-26T13:06:39;2.13;;;1.92;;
12112;SDS011;6120;52.250;8.478;2023-06-26T13:09:06;2.65;;;1.70;;
12112;SDS011;6120;52.250;8.478;2023-06-26T13:11:33;2.35;;;1.73;;
12112;SDS011;6120;52.250;8.478;2023-06-26T13:16:36;2.22;;;1.80;;
12112;SDS011;6120;52.250;8.478;2023-06-26T13:19:03;2.22;;;2.03;;
12112;SDS011;6120;52.250;8.478;2023-06-26T13:21:30;2.42;;;1.90;;
12112;SDS011;6120;52.250;8.478;2023-06-26T13:23:56;2.33;;;2.00;;
12112;SDS011;6120;52.250;8.478;2023-06-26T13:26:23;1.88;;;1.60;;
12112;SDS011;6120;52.250;8.478;2023-06-26T13:29:02;2.63;;;1.70;;
12112;SDS011;6120;52.250;8.478;2023-06-26T13:31:29;2.00;;;1.80;;
12112;SDS011;6120;52.250;8.478;2023-06-26T13:33:59;3.33;;;1.92;;
12112;SDS011;6120;52.250;8.478;2023-06-26T13:36:26;2.65;;;1.98;;
12112;SDS011;6120;52.250;8.478;2023-06-26T13:38:53;3.13;;;1.63;;
12112;SDS011;6120;52.250;8.478;2023-06-26T13:41:23;2.13;;;1.92;;
12112;SDS011;6120;52.250;8.478;2023-06-26T13:43:50;2.78;;;2.10;;
12112;SDS011;6120;52.250;8.478;2023-06-26T13:48:45;3.80;;;2.00;;
12112;SDS011;6120;52.250;8.478;2023-06-26T13:51:12;2.72;;;1.92;;
12112;SDS011;6120;52.250;8.478;2023-06-26T13:53:39;2.13;;;1.90;;
12112;SDS011;6120;52.250;8.478;2023-06-26T13:56:06;2.25;;;1.98;;
12112;SDS011;6120;52.250;8.478;2023-06-26T13:58:34;2.00;;;1.70;;
12112;SDS011;6120;52.250;8.478;2023-06-26T14:01:03;2.10;;;1.90;;
12112;SDS011;6120;52.250;8.478;2023-06-26T14:03:30;2.10;;;1.90;;
12112;SDS011;6120;52.250;8.478;2023-06-26T14:05:58;2.10;;;1.90;;
12112;SDS011;6120;52.250;8.478;2023-06-26T14:08:24;1.92;;;1.80;;
12112;SDS011;6120;52.250;8.478;2023-06-26T14:10:51;2.30;;;2.08;;
12112;SDS011;6120;52.250;8.478;2023-06-26T14:13:18;1.92;;;1.55;;
12112;SDS011;6120;52.250;8.478;2023-06-26T14:15:50;2.85;;;2.05;;
12112;SDS011;6120;52.250;8.478;2023-06-26T14:18:20;2.30;;;2.10;;
12112;SDS011;6120;52.250;8.478;2023-06-26T14:20:50;2.10;;;1.80;;
12112;SDS011;6120;52.250;8.478;2023-06-26T14:23:17;2.35;;;1.90;;
12112;SDS011;6120;52.250;8.478;2023-06-26T14:25:44;4.07;;;2.08;;
12112;SDS011;6120;52.250;8.478;2023-06-26T14:28:14;2.22;;;1.80;;
12112;SDS011;6120;52.250;8.478;2023-06-26T14:30:41;2.20;;;1.90;;
12112;SDS011;6120;52.250;8.478;2023-06-26T14:33:08;2.67;;;1.90;;
12112;SDS011;6120;52.250;8.478;2023-06-26T14:35:35;3.67;;;1.88;;
12112;SDS011;6120;52.250;8.478;2023-06-26T14:38:02;1.80;;;1.70;;
12112;SDS011;6120;52.250;8.478;2023-06-26T14:40:28;2.30;;;1.73;;
12112;SDS011;6120;52.250;8.478;2023-06-26T14:42:56;2.35;;;1.85;;
12112;SDS011;6120;52.250;8.478;2023-06-26T14:45:22;1.80;;;1.70;;
12112;SDS011;6120;52.250;8.478;2023-06-26T14:47:50;3.20;;;1.95;;
12112;SDS011;6120;52.250;8.478;2023-06-26T14:50:16;1.75;;;1.50;;
12112;SDS011;6120;52.250;8.478;2023-06-26T14:52:43;1.75;;;1.63;;
12112;SDS011;6120;52.250;8.478;2023-06-26T14:55:10;2.25;;;1.63;;
12112;SDS011;6120;52.250;8.478;2023-06-26T14:57:36;2.33;;;1.73;;
12112;SDS011;6120;52.250;8.478;2023-06-26T15:00:03;1.98;;;1.80;;
12112;SDS011;6120;52.250;8.478;2023-06-26T15:02:30;1.80;;;1.50;;
12112;SDS011;6120;52.250;8.478;2023-06-26T15:04:57;1.85;;;1.73;;
12112;SDS011;6120;52.250;8.478;2023-06-26T15:07:23;1.70;;;1.60;;
12112;SDS011;6120;52.250;8.478;2023-06-26T15:09:50;1.98;;;1.73;;
12112;SDS011;6120;52.250;8.478;2023-06-26T15:12:17;2.58;;;1.80;;
12112;SDS011;6120;52.250;8.478;2023-06-26T15:14:44;2.10;;;1.90;;
12112;SDS011;6120;52.250;8.478;2023-06-26T15:17:11;2.35;;;1.75;;
12112;SDS011;6120;52.250;8.478;2023-06-26T15:19:37;2.33;;;1.50;;
12112;SDS011;6120;52.250;8.478;2023-06-26T15:22:05;1.90;;;1.80;;
12112;SDS011;6120;52.250;8.478;2023-06-26T15:24:32;1.80;;;1.70;;
12112;SDS011;6120;52.250;8.478;2023-06-26T15:26:58;1.70;;;1.60;;
12112;SDS011;6120;52.250;8.478;2023-06-26T15:29:25;3.25;;;1.83;;
12112;SDS011;6120;52.250;8.478;2023-06-26T15:31:52;1.92;;;1.50;;
12112;SDS011;6120;52.250;8.478;2023-06-26T15:34:20;1.98;;;1.80;;
12112;SDS011;6120;52.250;8.478;2023-06-26T15:36:47;1.92;;;1.80;;
12112;SDS011;6120;52.250;8.478;2023-06-26T15:39:15;1.88;;;1.73;;
12112;SDS011;6120;52.250;8.478;2023-06-26T15:41:42;1.85;;;1.67;;
12112;SDS011;6120;52.250;8.478;2023-06-26T15:44:08;2.00;;;1.80;;